Time;durP1;ratioP1;P1;durP2;ratioP2;P2;SDS_P1;SDS_P2;PMS_P1;PMS_P2;Temp;Humidity;BMP_temperature;BMP_pressure;BME280_temperature;BME280_humidity;BME280_pressure;Samples;Min_cycle;Max_cycle;Signal;HPM_P1;HPM_P2
2022/06/14 00:03:30;;;;;;;10.88;7.45;;;;;;;;;;10370476;28;20264;-71
2022/06/14 00:08:30;;;;;;;14.02;7.43;;;;;;;;;;10394660;28;20483;-71
2022/06/14 00:13:31;;;;;;;13.00;6.97;;;;;;;;;;10368430;28;20022;-76
2022/06/14 00:18:31;;;;;;;11.02;7.78;;;;;;;;;;10377635;28;20025;-73
2022/06/14 00:23:31;;;;;;;12.02;6.88;;;;;;;;;;10334688;28;20133;-75
2022/06/14 00:28:33;;;;;;;14.50;7.10;;;;;;;;;;10362396;28;20455;-72
2022/06/14 00:33:34;;;;;;;10.40;7.00;;;;;;;;;;10361316;28;20081;-73
2022/06/14 00:38:35;;;;;;;10.32;7.25;;;;;;;;;;10362747;28;20567;-76
2022/06/14 00:43:35;;;;;;;12.30;7.32;;;;;;;;;;10375802;28;20032;-72
2022/06/14 00:48:36;;;;;;;10.27;6.70;;;;;;;;;;10375748;28;20022;-72
2022/06/14 00:53:41;;;;;;;10.20;6.80;;;;;;;;;;10343536;28;20104;-73
2022/06/14 00:58:48;;;;;;;13.13;7.20;;;;;;;;;;10366119;28;20025;-72
2022/06/14 01:03:50;;;;;;;11.52;6.80;;;;;;;;;;10342853;28;20085;-77
2022/06/14 01:09:04;;;;;;;11.52;7.28;;;;;;;;;;10367876;28;20029;-74
2022/06/14 01:14:06;;;;;;;17.00;8.38;;;;;;;;;;10391827;28;20029;-73
2022/06/14 01:19:11;;;;;;;12.27;7.65;;;;;;;;;;10383533;28;20511;-79
2022/06/14 01:24:11;;;;;;;13.85;8.63;;;;;;;;;;10350726;28;20026;-71
2022/06/14 01:29:11;;;;;;;18.48;10.18;;;;;;;;;;10357292;28;20026;-73
2022/06/14 01:34:12;;;;;;;13.88;8.88;;;;;;;;;;10349922;28;20678;-73
2022/06/14 01:39:14;;;;;;;15.02;8.40;;;;;;;;;;10370757;28;20013;-75
2022/06/14 01:44:21;;;;;;;14.85;8.95;;;;;;;;;;10387423;28;20117;-73
2022/06/14 01:55:17;;;;;;;14.35;9.10;;;;;;;;;;10367541;28;20029;-71
2022/06/14 02:00:21;;;;;;;10.85;7.85;;;;;;;;;;10360861;28;20026;-74
2022/06/14 02:05:25;;;;;;;10.73;8.20;;;;;;;;;;10357713;28;20037;-75
2022/06/14 02:10:32;;;;;;;13.68;7.53;;;;;;;;;;10371796;28;20488;-72
2022/06/14 02:15:51;;;;;;;13.07;6.80;;;;;;;;;;10371135;28;20030;-77
2022/06/14 02:20:51;;;;;;;;;;;;;;;;;;10364630;28;20144;-73
2022/06/14 02:26:04;;;;;;;8.90;7.35;;;;;;;;;;10360700;28;20125;-71
2022/06/14 02:31:10;;;;;;;12.13;8.25;;;;;;;;;;10352651;28;20025;-72
2022/06/14 02:36:49;;;;;;;15.75;9.15;;;;;;;;;;10358917;28;20487;-72
2022/06/14 02:41:49;;;;;;;11.73;8.50;;;;;;;;;;10248741;28;20034;-73
2022/06/14 02:46:52;;;;;;;12.00;9.90;;;;;;;;;;10344984;28;20048;-73
2022/06/14 02:51:55;;;;;;;13.77;9.63;;;;;;;;;;10359748;28;20073;-77
2022/06/14 02:56:59;;;;;;;14.60;9.88;;;;;;;;;;10360388;28;20072;-77
2022/06/14 03:02:01;;;;;;;17.17;9.43;;;;;;;;;;10363645;28;20061;-72
2022/06/14 03:07:07;;;;;;;18.02;9.73;;;;;;;;;;10367172;28;20379;-73
2022/06/14 03:12:11;;;;;;;15.00;9.45;;;;;;;;;;10354841;28;20588;-72
2022/06/14 03:17:17;;;;;;;15.38;9.10;;;;;;;;;;10358472;28;20076;-73
2022/06/14 03:22:22;;;;;;;12.68;9.20;;;;;;;;;;10377721;28;20016;-75
2022/06/14 03:27:25;;;;;;;16.92;9.27;;;;;;;;;;10345445;28;20024;-74
2022/06/14 03:32:55;;;;;;;20.38;9.52;;;;;;;;;;10348932;28;20025;-75
2022/06/14 03:37:56;;;;;;;20.42;10.15;;;;;;;;;;10350273;28;20029;-74
2022/06/14 03:42:58;;;;;;;19.90;9.80;;;;;;;;;;10361619;28;20013;-75
2022/06/14 03:47:59;;;;;;;18.70;9.00;;;;;;;;;;10353903;28;20049;-72
2022/06/14 03:53:25;;;;;;;22.20;9.98;;;;;;;;;;10356276;28;20048;-71
2022/06/14 03:58:38;;;;;;;22.58;10.30;;;;;;;;;;10375569;28;20025;-71
2022/06/14 04:03:42;;;;;;;16.85;11.30;;;;;;;;;;10353149;28;20022;-73
2022/06/14 04:08:45;;;;;;;18.73;10.32;;;;;;;;;;10366844;28;20017;-73
2022/06/14 04:13:45;;;;;;;21.50;11.20;;;;;;;;;;10375044;28;20087;-74
2022/06/14 04:18:45;;;;;;;14.93;10.02;;;;;;;;;;10378977;28;20014;-73
2022/06/14 04:23:57;;;;;;;17.27;11.77;;;;;;;;;;10383687;28;20482;-73
2022/06/14 04:28:58;;;;;;;16.15;10.32;;;;;;;;;;10360453;28;20018;-72
2022/06/14 04:34:04;;;;;;;18.10;11.23;;;;;;;;;;10372071;28;20033;-71
2022/06/14 04:39:12;;;;;;;19.52;10.93;;;;;;;;;;10362332;28;20112;-75
2022/06/14 04:44:34;;;;;;;16.27;10.82;;;;;;;;;;10404386;28;20029;-77
2022/06/14 04:49:37;;;;;;;17.95;12.02;;;;;;;;;;10359880;28;20041;-72
2022/06/14 04:54:41;;;;;;;15.90;9.13;;;;;;;;;;10363798;28;20548;-72
2022/06/14 04:59:47;;;;;;;13.63;8.88;;;;;;;;;;10351071;28;20109;-75
2022/06/14 05:04:51;;;;;;;19.77;10.13;;;;;;;;;;10370004;28;20026;-72
2022/06/14 05:09:56;;;;;;;14.05;8.27;;;;;;;;;;10351080;28;20077;-71
2022/06/14 05:15:01;;;;;;;19.10;8.70;;;;;;;;;;10368304;28;20049;-71
2022/06/14 05:20:08;;;;;;;17.58;8.00;;;;;;;;;;10369215;28;20093;-74
2022/06/14 05:25:09;;;;;;;13.57;8.55;;;;;;;;;;10372752;28;20151;-73
2022/06/14 05:30:23;;;;;;;17.80;9.52;;;;;;;;;;10361724;28;20036;-71
2022/06/14 05:35:27;;;;;;;18.38;8.35;;;;;;;;;;10367099;28;20484;-70
2022/06/14 05:40:34;;;;;;;23.27;9.65;;;;;;;;;;10388032;28;20029;-71
2022/06/14 05:45:39;;;;;;;21.10;11.07;;;;;;;;;;10382289;28;20058;-71
2022/06/14 05:50:42;;;;;;;21.60;10.70;;;;;;;;;;10384183;28;20105;-71
2022/06/14 05:55:47;;;;;;;20.73;9.75;;;;;;;;;;10389131;28;20029;-71
2022/06/14 06:00:53;;;;;;;18.38;9.43;;;;;;;;;;10389586;28;20462;-71
2022/06/14 06:05:59;;;;;;;12.63;6.85;;;;;;;;;;10389684;28;20017;-73
2022/06/14 06:11:08;;;;;;;10.13;5.47;;;;;;;;;;10349046;28;20492;-73
2022/06/14 06:16:35;;;;;;;10.15;6.75;;;;;;;;;;10376271;28;20411;-72
2022/06/14 06:21:48;;;;;;;9.80;6.22;;;;;;;;;;10388758;28;20067;-71
2022/06/14 06:26:55;;;;;;;9.40;5.32;;;;;;;;;;10388231;28;20040;-71
2022/06/14 06:31:56;;;;;;;12.52;5.60;;;;;;;;;;10388664;28;20095;-71
2022/06/14 06:37:04;;;;;;;15.37;6.87;;;;;;;;;;10381565;28;20026;-70
2022/06/14 06:42:05;;;;;;;17.35;5.93;;;;;;;;;;10357976;28;20113;-73
2022/06/14 06:47:08;;;;;;;9.60;5.63;;;;;;;;;;10371900;28;20654;-72
2022/06/14 06:52:09;;;;;;;8.82;5.70;;;;;;;;;;10375658;28;20049;-72
2022/06/14 06:57:14;;;;;;;11.95;5.65;;;;;;;;;;10347431;28;20404;-71
2022/06/14 07:02:41;;;;;;;14.75;6.55;;;;;;;;;;10371419;28;20387;-72
2022/06/14 07:07:42;;;;;;;17.33;6.90;;;;;;;;;;10397700;28;20420;-71
2022/06/14 07:12:48;;;;;;;7.40;5.22;;;;;;;;;;10345971;28;20029;-72
2022/06/14 07:17:55;;;;;;;8.57;4.95;;;;;;;;;;10346023;28;20018;-74
2022/06/14 07:23:15;;;;;;;9.27;4.75;;;;;;;;;;10363628;28;20087;-72
2022/06/14 07:28:20;;;;;;;14.00;6.18;;;;;;;;;;10317352;28;20419;-73
2022/06/14 07:33:21;;;;;;;12.10;6.05;;;;;;;;;;10345483;28;20491;-73
2022/06/14 07:38:31;;;;;;;8.82;5.85;;;;;;;;;;10362772;28;20028;-71
2022/06/14 07:43:32;;;;;;;6.22;5.47;;;;;;;;;;10344940;28;20504;-74
2022/06/14 07:48:41;;;;;;;10.98;5.85;;;;;;;;;;10344563;28;20018;-72
2022/06/14 07:53:45;;;;;;;11.73;5.78;;;;;;;;;;10377510;28;20135;-72
2022/06/14 07:58:48;;;;;;;9.63;5.05;;;;;;;;;;10385499;28;20395;-72
2022/06/14 08:03:51;;;;;;;13.60;5.40;;;;;;;;;;10385425;28;20079;-73
2022/06/14 08:09:04;;;;;;;9.25;4.80;;;;;;;;;;10385087;28;20025;-71
2022/06/14 08:14:08;;;;;;;6.32;4.55;;;;;;;;;;10370558;28;20028;-70
2022/06/14 08:19:08;;;;;;;19.02;4.72;;;;;;;;;;10354527;28;20497;-71
2022/06/14 08:24:09;;;;;;;6.45;3.65;;;;;;;;;;10343911;28;20030;-72
2022/06/14 08:29:35;;;;;;;16.45;4.22;;;;;;;;;;10375406;28;20040;-71
2022/06/14 08:35:05;;;;;;;8.00;3.60;;;;;;;;;;10380241;28;20040;-71
2022/06/14 08:40:44;;;;;;;9.35;3.22;;;;;;;;;;10348348;28;20033;-72
2022/06/14 08:46:03;;;;;;;4.72;3.17;;;;;;;;;;10245529;28;20072;-72
2022/06/14 08:51:29;;;;;;;4.78;2.63;;;;;;;;;;10361645;28;20050;-70
2022/06/14 08:56:39;;;;;;;8.55;3.38;;;;;;;;;;10332999;28;20100;-69
2022/06/14 09:01:42;;;;;;;3.85;2.63;;;;;;;;;;10350553;28;20396;-69
2022/06/14 09:06:54;;;;;;;6.25;3.25;;;;;;;;;;10383639;28;20455;-71
2022/06/14 09:12:18;;;;;;;4.35;3.03;;;;;;;;;;10364241;28;20460;-71
2022/06/14 09:17:37;;;;;;;5.32;3.08;;;;;;;;;;10360453;28;20025;-70
2022/06/14 09:23:07;;;;;;;6.95;3.63;;;;;;;;;;10342785;28;20623;-71
2022/06/14 09:28:25;;;;;;;7.25;3.45;;;;;;;;;;10333025;28;20025;-69
2022/06/14 09:34:01;;;;;;;8.05;3.50;;;;;;;;;;10379627;28;20069;-72
2022/06/14 09:39:01;;;;;;;7.20;4.00;;;;;;;;;;10281335;28;20098;-71
2022/06/14 09:44:04;;;;;;;9.77;3.90;;;;;;;;;;10349708;28;20420;-71
2022/06/14 09:49:11;;;;;;;7.07;3.97;;;;;;;;;;10387089;28;20033;-72
2022/06/14 09:54:11;;;;;;;9.90;4.80;;;;;;;;;;10349354;28;20042;-70
2022/06/14 09:59:30;;;;;;;6.95;3.88;;;;;;;;;;10335388;28;20015;-72
2022/06/14 10:04:50;;;;;;;7.22;3.90;;;;;;;;;;10308114;28;20030;-73
2022/06/14 10:09:51;;;;;;;6.15;4.00;;;;;;;;;;10319743;28;20041;-71
2022/06/14 10:14:54;;;;;;;8.10;3.60;;;;;;;;;;10329556;28;20027;-72
2022/06/14 10:19:54;;;;;;;6.45;3.45;;;;;;;;;;10325532;28;20022;-69
2022/06/14 10:24:54;;;;;;;3.05;2.03;;;;;;;;;;10347289;28;20030;-70
2022/06/14 10:30:03;;;;;;;4.38;1.98;;;;;;;;;;10308075;28;20608;-71
2022/06/14 10:35:16;;;;;;;3.70;2.20;;;;;;;;;;10330028;28;20034;-71
2022/06/14 10:40:25;;;;;;;7.28;2.85;;;;;;;;;;10317521;28;20022;-71
2022/06/14 10:45:46;;;;;;;5.82;2.58;;;;;;;;;;10338859;28;20029;-71
2022/06/14 10:50:49;;;;;;;4.60;2.85;;;;;;;;;;10349591;28;20065;-71
2022/06/14 10:55:55;;;;;;;4.18;3.03;;;;;;;;;;10397014;28;20037;-71
2022/06/14 11:01:14;;;;;;;9.75;3.88;;;;;;;;;;10364102;28;20029;-72
2022/06/14 11:06:35;;;;;;;7.90;4.15;;;;;;;;;;10346154;28;20029;-71
2022/06/14 11:12:01;;;;;;;7.10;4.00;;;;;;;;;;10347821;28;20029;-71
2022/06/14 11:17:08;;;;;;;8.05;4.97;;;;;;;;;;10342481;28;20115;-70
2022/06/14 11:22:14;;;;;;;13.95;5.88;;;;;;;;;;10363488;28;20117;-70
2022/06/14 11:27:20;;;;;;;9.55;5.35;;;;;;;;;;10372544;28;20025;-70
2022/06/14 11:32:25;;;;;;;6.95;3.15;;;;;;;;;;10386981;28;20083;-70
2022/06/14 11:37:28;;;;;;;10.70;3.50;;;;;;;;;;10370681;28;20403;-70
2022/06/14 11:42:45;;;;;;;9.05;3.33;;;;;;;;;;10374383;28;20072;-71
2022/06/14 11:47:51;;;;;;;4.88;2.50;;;;;;;;;;10373514;28;20030;-70
2022/06/14 11:52:52;;;;;;;4.70;3.22;;;;;;;;;;10358916;28;20095;-78
2022/06/14 11:58:08;;;;;;;4.40;2.73;;;;;;;;;;10358171;28;20144;-72
2022/06/14 12:03:08;;;;;;;4.45;1.85;;;;;;;;;;10365332;28;20056;-71
2022/06/14 12:08:08;;;;;;;2.80;2.17;;;;;;;;;;10358599;28;20155;-70
2022/06/14 12:13:08;;;;;;;3.92;2.20;;;;;;;;;;10360687;28;20289;-72
2022/06/14 12:18:11;;;;;;;5.07;2.50;;;;;;;;;;10364434;28;20483;-73
2022/06/14 12:23:15;;;;;;;12.30;4.97;;;;;;;;;;10376336;28;20088;-71
2022/06/14 12:28:15;;;;;;;4.55;2.85;;;;;;;;;;10379591;28;20091;-68
2022/06/14 12:33:18;;;;;;;6.32;3.53;;;;;;;;;;10361775;28;20072;-74
2022/06/14 12:38:22;;;;;;;6.70;3.05;;;;;;;;;;10381181;28;20105;-72
2022/06/14 12:43:32;;;;;;;7.13;3.78;;;;;;;;;;10358229;28;20604;-71
2022/06/14 12:48:45;;;;;;;5.90;3.28;;;;;;;;;;10345707;28;20087;-70
2022/06/14 12:54:04;;;;;;;4.85;4.22;;;;;;;;;;10378465;28;20046;-71
2022/06/14 12:59:07;;;;;;;7.40;5.97;;;;;;;;;;10365235;28;20076;-71
2022/06/14 13:04:15;;;;;;;5.90;4.05;;;;;;;;;;10367599;28;20026;-72
2022/06/14 13:09:24;;;;;;;5.90;4.40;;;;;;;;;;10360887;28;20033;-71
2022/06/14 13:14:29;;;;;;;9.07;4.05;;;;;;;;;;10366619;28;20030;-69
2022/06/14 13:19:48;;;;;;;11.52;4.90;;;;;;;;;;10362961;28;20034;-71
2022/06/14 13:24:57;;;;;;;5.38;4.03;;;;;;;;;;10371029;28;20041;-72
2022/06/14 13:30:00;;;;;;;10.57;4.55;;;;;;;;;;10389765;28;20539;-75
2022/06/14 13:35:04;;;;;;;9.02;3.92;;;;;;;;;;10374719;28;20122;-73
2022/06/14 13:40:14;;;;;;;5.82;2.95;;;;;;;;;;10365827;28;20042;-71
2022/06/14 13:45:21;;;;;;;7.88;2.55;;;;;;;;;;10400247;28;20124;-70
2022/06/14 13:50:22;;;;;;;8.32;3.03;;;;;;;;;;10368047;28;20165;-72
2022/06/14 13:55:45;;;;;;;7.15;2.60;;;;;;;;;;10402775;28;20036;-71
2022/06/14 14:00:48;;;;;;;7.53;2.38;;;;;;;;;;10376524;28;20018;-73
2022/06/14 14:05:51;;;;;;;6.53;2.20;;;;;;;;;;10371646;28;20061;-73
2022/06/14 14:11:00;;;;;;;3.72;2.08;;;;;;;;;;10379333;28;20593;-74
2022/06/14 14:16:12;;;;;;;4.22;2.08;;;;;;;;;;10392313;28;20638;-71
2022/06/14 14:21:25;;;;;;;3.22;1.83;;;;;;;;;;10399231;28;20017;-70
2022/06/14 14:26:28;;;;;;;3.80;2.00;;;;;;;;;;10382476;28;20028;-69
2022/06/14 14:31:38;;;;;;;7.70;2.00;;;;;;;;;;10383533;28;20040;-73
2022/06/14 14:36:47;;;;;;;7.68;1.73;;;;;;;;;;10422106;28;20140;-73
2022/06/14 14:41:57;;;;;;;2.40;1.25;;;;;;;;;;10409471;28;20484;-75
2022/06/14 14:47:16;;;;;;;3.40;1.65;;;;;;;;;;10408108;28;20108;-69
2022/06/14 14:52:34;;;;;;;3.80;1.50;;;;;;;;;;10404563;28;20504;-69
2022/06/14 14:57:56;;;;;;;2.75;1.45;;;;;;;;;;10391365;28;20033;-71
2022/06/14 15:08:21;;;;;;;6.05;1.70;;;;;;;;;;10440810;28;20454;-71
2022/06/14 15:13:45;;;;;;;8.32;1.63;;;;;;;;;;10419967;28;20492;-69
2022/06/14 15:24:15;;;;;;;8.10;1.95;;;;;;;;;;10413163;28;20154;-71
2022/06/14 15:29:45;;;;;;;5.07;1.50;;;;;;;;;;10390500;28;20462;-72
2022/06/14 15:34:47;;;;;;;3.58;1.92;;;;;;;;;;10374941;28;20467;-72
2022/06/14 15:39:53;;;;;;;1.30;1.20;;;;;;;;;;10409950;28;20021;-71
2022/06/14 15:44:53;;;;;;;5.07;2.88;;;;;;;;;;10389033;28;20033;-71
2022/06/14 15:49:54;;;;;;;3.28;1.63;;;;;;;;;;10387627;28;20584;-71
2022/06/14 15:54:58;;;;;;;2.28;1.52;;;;;;;;;;10407478;28;20021;-77
2022/06/14 16:00:08;;;;;;;5.80;2.22;;;;;;;;;;10397388;28;20032;-72
2022/06/14 16:05:16;;;;;;;2.97;1.73;;;;;;;;;;10384781;28;20053;-71
2022/06/14 16:10:21;;;;;;;3.45;1.85;;;;;;;;;;10414624;28;20108;-71
2022/06/14 16:15:40;;;;;;;2.50;1.50;;;;;;;;;;10382128;28;20029;-74
2022/06/14 16:20:40;;;;;;;7.32;1.35;;;;;;;;;;10402263;28;20123;-72
2022/06/14 16:25:54;;;;;;;6.13;2.00;;;;;;;;;;10384569;28;20523;-70
2022/06/14 16:30:57;;;;;;;4.28;2.05;;;;;;;;;;10409229;28;20030;-69
2022/06/14 16:36:04;;;;;;;2.45;1.70;;;;;;;;;;10403059;28;20090;-77
2022/06/14 16:41:12;;;;;;;14.60;1.98;;;;;;;;;;10417896;28;20105;-69
2022/06/14 16:46:12;;;;;;;5.18;2.30;;;;;;;;;;10415125;28;20484;-75
2022/06/14 16:51:25;;;;;;;7.97;1.92;;;;;;;;;;10424390;28;20052;-72
2022/06/14 16:56:46;;;;;;;5.43;2.10;;;;;;;;;;10417283;28;20543;-74
2022/06/14 17:01:55;;;;;;;8.23;3.30;;;;;;;;;;10408954;28;20032;-73
2022/06/14 17:06:58;;;;;;;8.85;2.70;;;;;;;;;;10410470;28;20069;-71
2022/06/14 17:12:09;;;;;;;4.72;2.88;;;;;;;;;;10412902;28;20112;-75
2022/06/14 17:17:16;;;;;;;9.73;2.30;;;;;;;;;;10414955;28;20497;-72
2022/06/14 17:22:31;;;;;;;3.08;2.22;;;;;;;;;;10408876;28;20124;-71
2022/06/14 17:33:22;;;;;;;5.53;2.38;;;;;;;;;;10421967;28;20032;-77
2022/06/14 17:38:25;;;;;;;4.00;2.92;;;;;;;;;;10407789;28;20017;-69
2022/06/14 17:43:28;;;;;;;6.32;2.08;;;;;;;;;;10404104;28;20399;-70
2022/06/14 17:48:41;;;;;;;10.98;2.45;;;;;;;;;;10405517;28;20056;-71
2022/06/14 17:53:48;;;;;;;6.65;2.97;;;;;;;;;;10410753;28;20053;-73
2022/06/14 17:59:07;;;;;;;7.93;3.30;;;;;;;;;;10426769;28;20025;-74
2022/06/14 18:04:14;;;;;;;3.55;2.70;;;;;;;;;;10402874;28;20034;-72
2022/06/14 18:09:15;;;;;;;4.70;2.80;;;;;;;;;;10406536;28;20018;-72
2022/06/14 18:14:24;;;;;;;4.25;2.70;;;;;;;;;;10422316;28;20386;-69
2022/06/14 18:24:52;;;;;;;4.75;2.13;;;;;;;;;;10430870;28;20029;-77
2022/06/14 18:29:54;;;;;;;4.38;2.88;;;;;;;;;;10417362;28;20025;-77
2022/06/14 18:34:57;;;;;;;3.60;3.08;;;;;;;;;;10411714;28;20025;-75
2022/06/14 18:40:04;;;;;;;3.83;2.67;;;;;;;;;;10406768;28;20028;-79
2022/06/14 18:45:11;;;;;;;4.22;2.72;;;;;;;;;;10404206;28;20133;-72
2022/06/14 18:50:17;;;;;;;5.47;3.05;;;;;;;;;;10420102;28;20052;-73
2022/06/14 18:55:17;;;;;;;6.68;3.38;;;;;;;;;;10427099;28;20021;-75
2022/06/14 19:00:30;;;;;;;9.15;3.83;;;;;;;;;;10410729;28;20022;-73
2022/06/14 19:05:48;;;;;;;4.65;3.05;;;;;;;;;;10431806;28;20018;-72
2022/06/14 19:10:54;;;;;;;4.93;3.47;;;;;;;;;;10406949;28;20085;-75
2022/06/14 19:15:57;;;;;;;4.35;3.58;;;;;;;;;;10411550;28;20033;-75
2022/06/14 19:21:18;;;;;;;5.32;3.45;;;;;;;;;;10400533;28;20025;-73
2022/06/14 19:26:21;;;;;;;6.90;4.82;;;;;;;;;;10409705;28;20037;-72
2022/06/14 19:31:24;;;;;;;12.70;4.40;;;;;;;;;;10403809;28;20044;-73
2022/06/14 19:36:29;;;;;;;6.72;4.10;;;;;;;;;;10405658;28;20024;-75
2022/06/14 19:41:48;;;;;;;3.95;3.58;;;;;;;;;;10398972;28;20112;-74
2022/06/14 19:46:49;;;;;;;4.28;3.85;;;;;;;;;;10414668;28;20025;-76
2022/06/14 19:51:51;;;;;;;7.25;4.07;;;;;;;;;;10413527;28;20044;-71
2022/06/14 19:56:51;;;;;;;7.60;4.38;;;;;;;;;;10417022;28;20021;-73
2022/06/14 20:01:53;;;;;;;6.50;4.27;;;;;;;;;;10400434;28;20487;-74
2022/06/14 20:06:54;;;;;;;7.55;4.30;;;;;;;;;;10403126;28;20286;-73
2022/06/14 20:11:54;;;;;;;7.93;4.03;;;;;;;;;;10414694;28;20024;-76
2022/06/14 20:17:06;;;;;;;4.70;3.38;;;;;;;;;;10414961;28;20037;-75
2022/06/14 20:22:08;;;;;;;10.10;3.75;;;;;;;;;;10403235;28;20022;-74
2022/06/14 20:27:10;;;;;;;4.80;3.70;;;;;;;;;;10396745;28;20128;-71
2022/06/14 20:32:10;;;;;;;8.10;3.88;;;;;;;;;;10406675;28;20029;-74
2022/06/14 20:37:11;;;;;;;5.60;3.60;;;;;;;;;;10405870;28;20468;-74
2022/06/14 20:42:15;;;;;;;6.28;3.60;;;;;;;;;;10403270;28;20032;-71
2022/06/14 20:47:17;;;;;;;3.60;3.05;;;;;;;;;;10409563;28;20028;-74
2022/06/14 20:52:17;;;;;;;4.43;3.03;;;;;;;;;;10417512;28;20045;-72
2022/06/14 20:57:19;;;;;;;4.57;3.38;;;;;;;;;;10392059;28;20021;-78
2022/06/14 21:02:20;;;;;;;5.25;3.40;;;;;;;;;;10414585;28;20427;-73
2022/06/14 21:07:21;;;;;;;6.40;2.90;;;;;;;;;;10401960;28;20025;-73
2022/06/14 21:12:30;;;;;;;4.90;3.30;;;;;;;;;;10396737;28;20491;-72
2022/06/14 21:17:31;;;;;;;4.03;3.17;;;;;;;;;;10401902;28;20459;-74
2022/06/14 21:22:32;;;;;;;9.18;3.50;;;;;;;;;;10399950;28;20028;-74
2022/06/14 21:27:35;;;;;;;4.78;2.80;;;;;;;;;;10414690;28;20116;-71
2022/06/14 21:32:44;;;;;;;9.45;2.88;;;;;;;;;;10407273;28;20031;-73
2022/06/14 21:37:47;;;;;;;6.57;2.53;;;;;;;;;;10402268;28;20048;-72
2022/06/14 21:42:48;;;;;;;5.20;2.42;;;;;;;;;;10406617;28;20059;-75
2022/06/14 21:47:49;;;;;;;4.22;2.38;;;;;;;;;;10420850;28;20031;-74
2022/06/14 21:52:51;;;;;;;3.42;2.50;;;;;;;;;;10418392;28;20076;-73
2022/06/14 21:57:56;;;;;;;3.75;2.28;;;;;;;;;;10427359;28;20029;-73
2022/06/14 22:02:56;;;;;;;4.97;2.67;;;;;;;;;;10400033;28;20025;-74
2022/06/14 22:07:57;;;;;;;3.33;2.10;;;;;;;;;;10412171;28;20036;-73
2022/06/14 22:12:57;;;;;;;3.05;2.05;;;;;;;;;;10416837;23;20679;-75
2022/06/14 22:17:57;;;;;;;8.77;3.53;;;;;;;;;;10409128;28;20048;-73
2022/06/14 22:22:57;;;;;;;5.72;2.40;;;;;;;;;;10382490;28;20026;-73
2022/06/14 22:27:58;;;;;;;3.47;2.63;;;;;;;;;;10399906;28;20037;-76
2022/06/14 22:32:59;;;;;;;4.03;2.17;;;;;;;;;;10383752;28;20472;-72
2022/06/14 22:38:00;;;;;;;3.85;2.60;;;;;;;;;;10382158;28;20280;-74
2022/06/14 22:43:00;;;;;;;6.50;3.05;;;;;;;;;;10382352;28;20108;-77
2022/06/14 22:48:00;;;;;;;11.10;5.53;;;;;;;;;;10413837;28;20116;-75
2022/06/14 22:53:08;;;;;;;5.23;2.37;;;;;;;;;;10399045;28;20029;-74
2022/06/14 22:58:12;;;;;;;6.53;2.43;;;;;;;;;;10405999;28;20468;-74
2022/06/14 23:03:13;;;;;;;3.10;1.95;;;;;;;;;;10392014;28;20025;-75
2022/06/14 23:08:13;;;;;;;3.03;2.13;;;;;;;;;;10377389;28;20021;-74
2022/06/14 23:13:13;;;;;;;6.28;2.25;;;;;;;;;;10381080;28;20346;-73
2022/06/14 23:18:14;;;;;;;4.15;2.38;;;;;;;;;;10397691;28;20037;-75
2022/06/14 23:23:14;;;;;;;3.17;2.15;;;;;;;;;;10380651;28;20018;-75
2022/06/14 23:28:14;;;;;;;7.20;2.13;;;;;;;;;;10379436;28;20571;-74
2022/06/14 23:33:14;;;;;;;2.87;1.97;;;;;;;;;;10363165;28;20022;-73
2022/06/14 23:38:15;;;;;;;6.25;2.40;;;;;;;;;;10378777;28;20014;-72
2022/06/14 23:43:15;;;;;;;3.47;2.40;;;;;;;;;;10379463;28;20033;-72
2022/06/14 23:48:16;;;;;;;3.72;2.00;;;;;;;;;;10400586;28;20029;-73
2022/06/14 23:53:17;;;;;;;5.15;2.42;;;;;;;;;;10380930;28;20013;-74
2022/06/14 23:58:18;;;;;;;3.25;2.20;;;;;;;;;;10382342;28;20017;-73
